SAAR/ROS METAR and TAF weather

Enter ICAO airport designator
Station Type Date Time Source
SAAR METAR 2020/01/24 21:00 UTC NOAA

SAAR 242100Z 29008KT CAVOK 33/16 Q1007


Station Type Date Time Source
SAAR Decoded METAR 2020/01/24 21:00 UTC NOAA

Rosario Aerodrome, Argentina (SAAR) 32-55S 060-47W 25M
Jan 24, 2020 - 04:00 PM EST / 2020.01.24 2100 UTC
Wind: from the WNW (290 degrees) at 9 MPH (8 KT):0
Visibility: greater than 7 mile(s):0
Temperature: 91 F (33 C)
Dew Point: 60 F (16 C)
Relative Humidity: 36%
Pressure (altimeter): 29.74 in. Hg (1007 hPa)
ob: SAAR 242100Z 29008KT CAVOK 33/16 Q1007
cycle: 21

Station Type Date Time Source
SAAR TAF 2020/01/24 18:15 UTC NOAA

TAF TAF SAAR 241700Z 2418/2518 32010KT 9999 FEW040 TX34/2519Z TN22/2509Z
BECMG 2503/2506 27005KT 9999 SCT035
BECMG 2512/2515 23010KT CAVOK

Example: see airport list